Time;durP1;ratioP1;P1;durP2;ratioP2;P2;SDS_P1;SDS_P2;PMS_P1;PMS_P2;Temp;Humidity;BMP_temperature;BMP_pressure;BME280_temperature;BME280_humidity;BME280_pressure;Samples;Min_cycle;Max_cycle;Signal;HPM_P1;HPM_P2
2022/07/05 00:00:14;;;;;;;18.17;8.67;;;;;;;;;;4992669;28;20543;-48
2022/07/05 00:02:40;;;;;;;14.60;7.78;;;;;;;;;;4992326;28;20117;-47
2022/07/05 00:05:07;;;;;;;17.20;7.67;;;;;;;;;;4992576;28;20022;-47
2022/07/05 00:07:33;;;;;;;17.95;8.13;;;;;;;;;;4992468;28;20026;-47
2022/07/05 00:09:59;;;;;;;14.55;8.32;;;;;;;;;;4992401;28;20326;-47
2022/07/05 00:12:27;;;;;;;16.05;7.55;;;;;;;;;;4992382;28;20156;-46
2022/07/05 00:14:53;;;;;;;22.55;9.40;;;;;;;;;;4991861;28;20384;-47
2022/07/05 00:17:19;;;;;;;18.67;9.38;;;;;;;;;;4992565;28;20037;-47
2022/07/05 00:19:46;;;;;;;14.25;8.07;;;;;;;;;;4992144;28;20038;-47
2022/07/05 00:22:12;;;;;;;14.73;8.93;;;;;;;;;;5007558;28;20399;-48
2022/07/05 00:24:38;;;;;;;12.32;8.05;;;;;;;;;;4992217;28;20475;-48
2022/07/05 00:27:04;;;;;;;13.85;8.60;;;;;;;;;;4990827;28;20386;-47
2022/07/05 00:29:30;;;;;;;17.90;8.20;;;;;;;;;;4991787;28;20030;-47
2022/07/05 00:31:56;;;;;;;19.37;9.23;;;;;;;;;;4992432;28;20031;-48
2022/07/05 00:34:22;;;;;;;20.70;7.97;;;;;;;;;;4991934;28;20479;-47
2022/07/05 00:36:48;;;;;;;13.20;8.27;;;;;;;;;;5007214;28;20060;-47
2022/07/05 00:39:14;;;;;;;20.27;9.27;;;;;;;;;;4992320;28;20034;-47
2022/07/05 00:41:40;;;;;;;16.00;8.50;;;;;;;;;;4992082;28;20285;-46
2022/07/05 00:44:08;;;;;;;24.60;9.57;;;;;;;;;;5006518;28;20069;-47
2022/07/05 00:46:35;;;;;;;18.63;8.82;;;;;;;;;;4992034;28;20277;-48
2022/07/05 00:49:02;;;;;;;18.92;8.38;;;;;;;;;;4991931;28;20033;-47
2022/07/05 00:51:30;;;;;;;19.25;10.13;;;;;;;;;;4991974;28;20034;-47
2022/07/05 00:53:56;;;;;;;17.95;9.57;;;;;;;;;;4991812;28;20513;-47
2022/07/05 00:56:23;;;;;;;16.23;10.20;;;;;;;;;;4991923;28;20038;-47
2022/07/05 00:58:50;;;;;;;19.63;10.70;;;;;;;;;;5006908;28;20038;-46
2022/07/05 01:01:16;;;;;;;16.77;9.67;;;;;;;;;;4992078;28;20426;-47
2022/07/05 01:03:43;;;;;;;13.57;9.35;;;;;;;;;;4994251;28;20057;-47
2022/07/05 01:06:10;;;;;;;17.08;9.82;;;;;;;;;;4995662;28;20026;-46
2022/07/05 01:08:38;;;;;;;13.25;9.88;;;;;;;;;;5011039;28;20026;-46
2022/07/05 01:11:04;;;;;;;22.75;11.80;;;;;;;;;;4995567;28;20034;-47
2022/07/05 01:13:31;;;;;;;18.87;9.63;;;;;;;;;;5010700;28;20073;-47
2022/07/05 01:15:57;;;;;;;18.33;10.77;;;;;;;;;;4995097;28;20070;-46
2022/07/05 01:18:23;;;;;;;15.37;10.33;;;;;;;;;;4995642;28;20066;-47
2022/07/05 01:20:49;;;;;;;18.20;10.85;;;;;;;;;;5010785;28;20262;-47
2022/07/05 01:23:17;;;;;;;19.35;11.73;;;;;;;;;;4995244;28;20030;-47
2022/07/05 01:25:44;;;;;;;19.88;11.25;;;;;;;;;;4995099;28;20037;-48
2022/07/05 01:28:10;;;;;;;14.23;11.32;;;;;;;;;;4995695;28;20108;-46
2022/07/05 01:30:37;;;;;;;19.17;11.02;;;;;;;;;;4995505;28;20038;-47
2022/07/05 01:33:05;;;;;;;24.85;12.05;;;;;;;;;;4995372;28;20029;-47
2022/07/05 01:35:31;;;;;;;21.33;10.68;;;;;;;;;;4995627;28;20100;-47
2022/07/05 01:37:57;;;;;;;14.80;11.10;;;;;;;;;;4995323;28;20033;-47
2022/07/05 01:40:23;;;;;;;21.20;12.20;;;;;;;;;;4994537;28;20030;-47
2022/07/05 01:42:49;;;;;;;19.38;10.60;;;;;;;;;;4994689;28;20031;-47
2022/07/05 01:45:38;;;;;;;22.63;11.23;;;;;;;;;;4995077;28;20023;-47
2022/07/05 01:48:02;;;;;;;24.58;12.20;;;;;;;;;;4994798;28;20097;-47
2022/07/05 01:50:29;;;;;;;17.33;12.35;;;;;;;;;;4994946;28;20029;-46
2022/07/05 01:52:56;;;;;;;25.15;12.77;;;;;;;;;;5010564;28;20030;-47
2022/07/05 01:55:22;;;;;;;21.65;11.15;;;;;;;;;;4994796;28;20084;-47
2022/07/05 01:57:48;;;;;;;20.67;11.90;;;;;;;;;;4994747;28;20030;-46
2022/07/05 02:00:15;;;;;;;18.20;12.07;;;;;;;;;;4994788;28;20026;-49
2022/07/05 02:02:45;;;;;;;23.03;12.90;;;;;;;;;;4994830;28;20281;-47
2022/07/05 02:05:11;;;;;;;22.83;14.48;;;;;;;;;;4994752;28;20088;-47
2022/07/05 02:07:37;;;;;;;18.80;13.37;;;;;;;;;;4993993;28;20034;-47
2022/07/05 02:10:03;;;;;;;20.13;13.80;;;;;;;;;;4994800;28;20030;-48
2022/07/05 02:12:29;;;;;;;20.00;13.52;;;;;;;;;;4994654;28;20034;-47
2022/07/05 02:14:55;;;;;;;21.92;13.95;;;;;;;;;;5008833;28;20080;-46
2022/07/05 02:17:21;;;;;;;20.67;14.35;;;;;;;;;;5009420;28;20543;-46
2022/07/05 02:19:47;;;;;;;16.63;14.53;;;;;;;;;;4994485;28;20089;-47
2022/07/05 02:22:13;;;;;;;30.40;15.20;;;;;;;;;;5009673;28;20022;-49
2022/07/05 02:24:40;;;;;;;18.37;14.87;;;;;;;;;;4993756;28;20038;-47
2022/07/05 02:27:06;;;;;;;22.10;14.35;;;;;;;;;;5009157;28;20052;-47
2022/07/05 02:29:32;;;;;;;28.43;16.77;;;;;;;;;;4994377;28;20061;-48
2022/07/05 02:31:58;;;;;;;23.50;15.93;;;;;;;;;;4994250;28;20034;-45
2022/07/05 02:34:24;;;;;;;19.70;15.88;;;;;;;;;;4994004;28;20034;-47
2022/07/05 02:36:50;;;;;;;22.87;16.53;;;;;;;;;;4993565;28;20034;-46
2022/07/05 02:39:16;;;;;;;23.02;15.40;;;;;;;;;;4992605;28;20126;-47
2022/07/05 02:41:42;;;;;;;23.53;16.50;;;;;;;;;;4994063;28;20068;-47
2022/07/05 02:44:08;;;;;;;31.08;17.02;;;;;;;;;;5009119;28;20038;-47
2022/07/05 02:46:34;;;;;;;25.00;15.37;;;;;;;;;;4994173;28;20037;-49
2022/07/05 02:49:00;;;;;;;23.83;17.13;;;;;;;;;;4993082;28;20065;-47
2022/07/05 02:51:26;;;;;;;25.05;18.23;;;;;;;;;;4986381;28;20034;-47
2022/07/05 02:53:52;;;;;;;20.63;16.83;;;;;;;;;;4993259;28;20038;-48
2022/07/05 02:56:18;;;;;;;21.67;18.03;;;;;;;;;;4993707;28;20118;-47
2022/07/05 02:58:44;;;;;;;24.02;18.02;;;;;;;;;;4993887;28;20053;-47
2022/07/05 03:01:10;;;;;;;23.30;17.47;;;;;;;;;;4988076;28;20134;-47
2022/07/05 03:03:36;;;;;;;21.07;17.77;;;;;;;;;;4977726;28;20042;-47
2022/07/05 03:06:02;;;;;;;23.73;17.10;;;;;;;;;;4991065;28;20049;-47
2022/07/05 03:08:28;;;;;;;27.37;18.47;;;;;;;;;;4974259;28;20049;-47
2022/07/05 03:10:54;;;;;;;24.97;17.50;;;;;;;;;;4990600;28;20114;-47
2022/07/05 03:13:20;;;;;;;29.83;18.67;;;;;;;;;;4981152;28;20323;-48
2022/07/05 03:15:46;;;;;;;26.77;18.20;;;;;;;;;;4992299;28;20034;-47
2022/07/05 03:18:12;;;;;;;22.73;18.23;;;;;;;;;;4993640;28;20018;-48
2022/07/05 03:20:38;;;;;;;24.73;17.83;;;;;;;;;;4991060;28;20022;-47
2022/07/05 03:23:05;;;;;;;23.97;17.47;;;;;;;;;;4979664;28;20399;-47
2022/07/05 03:25:31;;;;;;;22.67;16.83;;;;;;;;;;4991354;28;20035;-47
2022/07/05 03:27:57;;;;;;;23.13;16.02;;;;;;;;;;4993591;28;20026;-47
2022/07/05 03:30:23;;;;;;;24.40;17.43;;;;;;;;;;4993382;28;20018;-47
2022/07/05 03:32:49;;;;;;;25.58;17.90;;;;;;;;;;5007970;28;20273;-47
2022/07/05 03:35:15;;;;;;;24.77;19.42;;;;;;;;;;4993326;28;20072;-46
2022/07/05 03:37:41;;;;;;;21.87;17.43;;;;;;;;;;4993347;28;20026;-49
2022/07/05 03:40:08;;;;;;;23.57;17.00;;;;;;;;;;4991846;28;20152;-47
2022/07/05 03:42:35;;;;;;;23.70;18.35;;;;;;;;;;5007752;28;20084;-50
2022/07/05 03:45:01;;;;;;;;;;;;;;;;;;4993492;28;20030;-47
2022/07/05 03:47:27;;;;;;;28.10;18.42;;;;;;;;;;4992674;28;19909;-47
2022/07/05 03:49:54;;;;;;;23.20;18.90;;;;;;;;;;4992705;28;20068;-50
2022/07/05 03:52:20;;;;;;;25.23;17.80;;;;;;;;;;4993268;28;20027;-51
2022/07/05 03:54:46;;;;;;;27.30;19.60;;;;;;;;;;4992946;28;20138;-48
2022/07/05 03:57:13;;;;;;;26.70;19.77;;;;;;;;;;4993053;28;20404;-48
2022/07/05 03:59:39;;;;;;;30.67;19.52;;;;;;;;;;4992723;28;20081;-47
2022/07/05 04:02:05;;;;;;;21.98;19.27;;;;;;;;;;4989705;28;20033;-47
2022/07/05 04:04:31;;;;;;;25.15;19.20;;;;;;;;;;4992865;28;20549;-47
2022/07/05 04:06:57;;;;;;;29.27;19.67;;;;;;;;;;4992844;28;20493;-47
2022/07/05 04:09:23;;;;;;;24.25;18.10;;;;;;;;;;4992502;28;20480;-47
2022/07/05 04:11:49;;;;;;;19.70;15.60;;;;;;;;;;4992589;28;20033;-47
2022/07/05 04:14:15;;;;;;;18.02;15.88;;;;;;;;;;4992668;28;20033;-48
2022/07/05 04:16:41;;;;;;;26.37;17.63;;;;;;;;;;4992574;28;20077;-47
2022/07/05 04:19:07;;;;;;;21.58;14.48;;;;;;;;;;4992544;28;20061;-48
2022/07/05 04:21:34;;;;;;;16.97;12.93;;;;;;;;;;4992596;28;20060;-47
2022/07/05 04:24:00;;;;;;;17.57;12.83;;;;;;;;;;4992483;28;20781;-48
2022/07/05 04:26:26;;;;;;;18.27;13.70;;;;;;;;;;5007635;28;20637;-48
2022/07/05 04:28:52;;;;;;;23.00;14.07;;;;;;;;;;4992442;28;20054;-48
2022/07/05 04:31:18;;;;;;;18.67;12.43;;;;;;;;;;4992456;28;20257;-48
2022/07/05 04:33:44;;;;;;;14.67;11.63;;;;;;;;;;4992450;28;20022;-47
2022/07/05 04:36:10;;;;;;;15.00;11.40;;;;;;;;;;5007324;28;20053;-47
2022/07/05 04:38:36;;;;;;;15.27;10.97;;;;;;;;;;4992679;28;20030;-48
2022/07/05 04:41:02;;;;;;;13.50;11.40;;;;;;;;;;4992265;28;20277;-47
2022/07/05 04:43:28;;;;;;;22.17;10.87;;;;;;;;;;4992395;28;20019;-47
2022/07/05 04:45:54;;;;;;;15.30;9.77;;;;;;;;;;4992259;28;20027;-47
2022/07/05 04:48:20;;;;;;;15.00;10.17;;;;;;;;;;4992274;28;20293;-48
2022/07/05 04:50:46;;;;;;;14.23;9.30;;;;;;;;;;4991996;28;20394;-49
2022/07/05 04:53:13;;;;;;;13.50;10.30;;;;;;;;;;4992387;28;20022;-47
2022/07/05 04:55:39;;;;;;;12.75;9.73;;;;;;;;;;4992572;28;20038;-47
2022/07/05 04:58:05;;;;;;;14.07;9.60;;;;;;;;;;4992259;28;20027;-47
2022/07/05 05:00:31;;;;;;;10.37;8.50;;;;;;;;;;4990618;28;20046;-47
2022/07/05 05:02:57;;;;;;;14.67;9.30;;;;;;;;;;4992227;28;20080;-48
2022/07/05 05:05:23;;;;;;;14.97;9.77;;;;;;;;;;4992285;28;20023;-47
2022/07/05 05:07:49;;;;;;;10.20;8.57;;;;;;;;;;4991896;28;20510;-47
2022/07/05 05:10:15;;;;;;;12.57;8.97;;;;;;;;;;4991813;28;20033;-47
2022/07/05 05:12:41;;;;;;;10.20;8.83;;;;;;;;;;4991886;28;20025;-47
2022/07/05 05:15:10;;;;;;;15.40;8.80;;;;;;;;;;4991927;28;20054;-48
2022/07/05 05:17:38;;;;;;;13.43;9.13;;;;;;;;;;4991977;28;20033;-47
2022/07/05 05:20:05;;;;;;;12.85;9.27;;;;;;;;;;4991776;28;20031;-47
2022/07/05 05:22:31;;;;;;;13.13;8.60;;;;;;;;;;4991951;28;20101;-47
2022/07/05 05:24:57;;;;;;;10.45;9.32;;;;;;;;;;4991808;28;20026;-48
2022/07/05 05:27:23;;;;;;;16.52;9.50;;;;;;;;;;4991639;28;20053;-48
2022/07/05 05:29:49;;;;;;;15.10;8.87;;;;;;;;;;4991907;28;20069;-48
2022/07/05 05:32:15;;;;;;;12.00;8.40;;;;;;;;;;4991957;28;20034;-48
2022/07/05 05:34:41;;;;;;;13.27;8.67;;;;;;;;;;4991804;28;20030;-47
2022/07/05 05:37:08;;;;;;;9.00;8.03;;;;;;;;;;4991702;28;20027;-47
2022/07/05 05:39:34;;;;;;;14.05;8.73;;;;;;;;;;4991507;28;20475;-47
2022/07/05 05:42:00;;;;;;;12.80;9.40;;;;;;;;;;4991810;28;20076;-47
2022/07/05 05:44:26;;;;;;;19.47;10.20;;;;;;;;;;4991757;28;20109;-47
2022/07/05 05:46:52;;;;;;;13.25;11.20;;;;;;;;;;4991832;28;20033;-47
2022/07/05 05:49:18;;;;;;;12.50;10.32;;;;;;;;;;4993182;28;20018;-48
2022/07/05 05:51:44;;;;;;;12.47;10.37;;;;;;;;;;4995327;28;20157;-48
2022/07/05 05:54:10;;;;;;;11.47;8.50;;;;;;;;;;4995117;28;20053;-48
2022/07/05 05:56:38;;;;;;;10.02;8.90;;;;;;;;;;4995171;28;20802;-47
2022/07/05 05:59:04;;;;;;;13.52;8.50;;;;;;;;;;4995012;28;20026;-47
2022/07/05 06:01:30;;;;;;;15.57;8.20;;;;;;;;;;4993791;28;20030;-48
2022/07/05 06:03:56;;;;;;;11.43;8.90;;;;;;;;;;4994993;28;20032;-48
2022/07/05 06:06:22;;;;;;;9.93;7.80;;;;;;;;;;4994955;28;20297;-49
2022/07/05 06:08:48;;;;;;;15.50;9.03;;;;;;;;;;4994792;28;20313;-48
2022/07/05 06:11:14;;;;;;;11.57;6.87;;;;;;;;;;4994815;28;20261;-47
2022/07/05 06:13:40;;;;;;;10.67;7.70;;;;;;;;;;4994943;28;20027;-47
2022/07/05 06:16:07;;;;;;;12.90;7.65;;;;;;;;;;4994790;28;20065;-48
2022/07/05 06:18:33;;;;;;;12.98;8.50;;;;;;;;;;4994898;28;20423;-48
2022/07/05 06:20:59;;;;;;;12.63;8.13;;;;;;;;;;4994696;28;20083;-48
2022/07/05 06:23:25;;;;;;;11.27;7.60;;;;;;;;;;4994799;28;20022;-48
2022/07/05 06:25:51;;;;;;;12.60;7.80;;;;;;;;;;4994632;28;20261;-47
2022/07/05 06:28:17;;;;;;;12.23;9.83;;;;;;;;;;4994742;28;20058;-47
2022/07/05 06:30:43;;;;;;;11.95;8.93;;;;;;;;;;4994508;28;20049;-48
2022/07/05 06:33:09;;;;;;;15.00;8.57;;;;;;;;;;4994467;28;20483;-48
2022/07/05 06:35:36;;;;;;;10.15;7.57;;;;;;;;;;4994492;28;20023;-48
2022/07/05 06:38:06;;;;;;;10.00;8.93;;;;;;;;;;4994573;28;20501;-47
2022/07/05 06:40:33;;;;;;;12.85;8.60;;;;;;;;;;4994235;28;20031;-47
2022/07/05 06:42:59;;;;;;;;;;;;;;;;;;4994719;28;20029;-48
2022/07/05 06:45:25;;;;;;;12.55;8.85;;;;;;;;;;4994407;28;19905;-48
2022/07/05 06:47:55;;;;;;;9.43;7.13;;;;;;;;;;4994309;28;20085;-48
2022/07/05 06:50:21;;;;;;;14.48;8.45;;;;;;;;;;4994205;28;20442;-48
2022/07/05 06:52:47;;;;;;;9.48;8.52;;;;;;;;;;4994238;28;20364;-48
2022/07/05 06:55:13;;;;;;;9.77;8.13;;;;;;;;;;4993962;28;20037;-49
2022/07/05 06:57:39;;;;;;;14.37;9.10;;;;;;;;;;4994152;28;20105;-48
2022/07/05 07:00:06;;;;;;;18.10;8.53;;;;;;;;;;4993800;28;20268;-48
2022/07/05 07:02:32;;;;;;;9.27;7.88;;;;;;;;;;4993950;28;20269;-48
2022/07/05 07:04:58;;;;;;;9.43;7.85;;;;;;;;;;4993944;28;20030;-48
2022/07/05 07:10:09;;;;;;;9.85;7.50;;;;;;;;;;4994021;28;20081;-49
2022/07/05 07:12:35;;;;;;;13.32;7.63;;;;;;;;;;4993887;28;20026;-48
2022/07/05 07:15:01;;;;;;;9.77;7.65;;;;;;;;;;4993729;28;20062;-48
2022/07/05 07:17:27;;;;;;;11.50;6.67;;;;;;;;;;4992511;28;20538;-48
2022/07/05 07:19:53;;;;;;;9.23;6.93;;;;;;;;;;4993528;28;20872;-48
2022/07/05 07:22:19;;;;;;;15.93;7.55;;;;;;;;;;4992264;28;20030;-49
2022/07/05 07:24:45;;;;;;;12.70;6.77;;;;;;;;;;4993603;28;20018;-48
2022/07/05 07:27:11;;;;;;;14.03;8.27;;;;;;;;;;4993551;28;20257;-48
2022/07/05 07:29:38;;;;;;;9.82;7.22;;;;;;;;;;4993359;28;20255;-50
2022/07/05 07:32:05;;;;;;;10.18;7.57;;;;;;;;;;4993471;28;20037;-49
2022/07/05 07:34:31;;;;;;;;;;;;;;;;;;4993769;28;20128;-49
2022/07/05 07:36:57;;;;;;;9.38;6.00;;;;;;;;;;4992051;28;20425;-50
2022/07/05 07:39:24;;;;;;;10.30;6.45;;;;;;;;;;4993174;28;20034;-51
2022/07/05 07:41:50;;;;;;;12.38;6.10;;;;;;;;;;4993294;28;20023;-48
2022/07/05 07:44:16;;;;;;;12.55;6.68;;;;;;;;;;4993211;28;20037;-50
2022/07/05 07:46:42;;;;;;;10.60;6.93;;;;;;;;;;4993376;28;20026;-49
2022/07/05 07:49:09;;;;;;;13.23;6.63;;;;;;;;;;4991722;28;20052;-49
2022/07/05 07:51:35;;;;;;;9.05;6.72;;;;;;;;;;4993098;28;20026;-48
2022/07/05 07:54:02;;;;;;;14.45;6.72;;;;;;;;;;4993056;28;20034;-50
2022/07/05 07:56:28;;;;;;;12.30;8.63;;;;;;;;;;4991585;28;20034;-50
2022/07/05 07:58:54;;;;;;;7.90;6.93;;;;;;;;;;4992921;28;20030;-52
2022/07/05 08:01:20;;;;;;;8.93;7.00;;;;;;;;;;4992803;28;20395;-50
2022/07/05 08:03:46;;;;;;;9.13;6.97;;;;;;;;;;4992888;28;20033;-55
2022/07/05 08:06:13;;;;;;;10.60;6.65;;;;;;;;;;4992785;28;20022;-52
2022/07/05 08:08:40;;;;;;;;;;;25.90;71.00;;;;;;4993084;28;20049;-53
2022/07/05 08:11:08;;;;;;;8.55;6.40;;;25.80;66.70;;;;;;4992490;28;19910;-55
2022/07/05 08:13:34;;;;;;;9.10;6.53;;;25.70;68.60;;;;;;4992716;28;20034;-55
2022/07/05 08:16:00;;;;;;;8.37;6.40;;;25.60;69.00;;;;;;4991495;28;20023;-52
2022/07/05 08:23:55;;;;;;;10.63;5.90;;;25.80;71.10;;;;;;4993007;28;20408;-52
2022/07/05 08:26:21;;;;;;;9.30;6.93;;;26.00;69.50;;;;;;4991193;28;20042;-52
2022/07/05 08:28:47;;;;;;;9.20;6.85;;;26.00;70.60;;;;;;5007414;28;20022;-52
2022/07/05 08:31:13;;;;;;;12.07;6.70;;;26.00;68.00;;;;;;4991269;28;20105;-52
2022/07/05 08:33:38;;;;;;;10.63;7.67;;;26.00;70.20;;;;;;4992765;28;20454;-51
2022/07/05 08:36:04;;;;;;;10.03;9.03;;;26.00;70.20;;;;;;5007375;28;20487;-53
2022/07/05 08:38:30;;;;;;;10.52;7.90;;;26.00;69.60;;;;;;4992263;28;20164;-54
2022/07/05 08:40:57;;;;;;;11.07;8.13;;;26.10;70.20;;;;;;4992315;28;20054;-52
2022/07/05 08:43:23;;;;;;;10.32;6.57;;;;;;;;;;4992410;28;20030;-52
2022/07/05 08:45:50;;;;;;;12.52;7.57;;;26.20;69.40;;;;;;4991175;28;20031;-55
2022/07/05 08:48:17;;;;;;;12.05;7.47;;;26.30;69.80;;;;;;4992295;28;20098;-52
2022/07/05 08:50:45;;;;;;;8.70;6.45;;;26.40;69.50;;;;;;5007175;28;20026;-52
2022/07/05 08:53:14;;;;;;;13.23;7.07;;;26.60;68.00;;;;;;5007404;28;20030;-52
2022/07/05 08:55:40;;;;;;;13.55;7.13;;;26.60;69.50;;;;;;4992120;28;20297;-52
2022/07/05 08:58:06;;;;;;;11.93;6.65;;;;;;;;;;5007585;28;20487;-53
2022/07/05 09:00:32;;;;;;;8.73;6.47;;;26.70;67.70;;;;;;4992273;28;20034;-53
2022/07/05 09:02:59;;;;;;;10.63;7.03;;;26.90;67.70;;;;;;4992078;28;20023;-54
2022/07/05 09:05:26;;;;;;;8.35;7.32;;;26.90;67.60;;;;;;4992083;28;20276;-52
2022/07/05 09:08:02;;;;;;;9.68;5.75;;;27.00;68.00;;;;;;4992089;28;20475;-53
2022/07/05 09:10:29;;;;;;;8.07;6.05;;;;;;;;;;4991946;28;20073;-54
2022/07/05 09:12:56;;;;;;;13.00;5.93;;;;;;;;;;4992118;28;20030;-52
2022/07/05 09:15:25;;;;;;;9.82;6.22;;;27.20;67.00;;;;;;4991966;28;20376;-55
2022/07/05 09:17:51;;;;;;;9.40;7.10;;;;;;;;;;4992137;28;20180;-55
2022/07/05 09:20:19;;;;;;;8.18;5.10;;;27.40;68.10;;;;;;4991932;28;20356;-53
2022/07/05 09:22:52;;;;;;;6.05;4.57;;;;;;;;;;5007125;28;20561;-53
2022/07/05 09:25:24;;;;;;;6.30;4.35;;;27.60;66.90;;;;;;4995392;28;20031;-53
2022/07/05 09:27:54;;;;;;;7.93;5.65;;;27.70;62.80;;;;;;4995998;28;20033;-52
2022/07/05 09:30:37;;;;;;;9.55;5.43;;;27.70;60.90;;;;;;4995516;28;20022;-52
2022/07/05 09:33:06;;;;;;;7.20;4.47;;;27.80;62.80;;;;;;4995745;28;20030;-54
2022/07/05 09:35:40;;;;;;;9.98;4.53;;;27.90;64.00;;;;;;4995461;28;20031;-52
2022/07/05 09:38:19;;;;;;;4.95;3.75;;;28.10;62.60;;;;;;4995570;28;20538;-53
2022/07/05 09:40:53;;;;;;;5.20;4.30;;;28.20;61.20;;;;;;4995372;28;20114;-53
2022/07/05 09:43:21;;;;;;;5.65;3.72;;;;;;;;;;4994135;28;20026;-53
2022/07/05 09:45:51;;;;;;;6.85;3.45;;;;;;;;;;4995349;28;20034;-52
2022/07/05 09:48:17;;;;;;;4.88;2.58;;;;;;;;;;4995365;28;20065;-53
2022/07/05 09:50:44;;;;;;;4.50;2.95;;;;;;;;;;4995214;28;20022;-52
2022/07/05 09:53:14;;;;;;;5.75;3.53;;;;;;;;;;4995395;28;20057;-53
2022/07/05 09:55:40;;;;;;;4.22;3.25;;;;;;;;;;4993773;28;20498;-53
2022/07/05 09:58:07;;;;;;;6.50;2.72;;;;;;;;;;4995256;28;20061;-54
2022/07/05 10:00:33;;;;;;;4.85;2.40;;;;;;;;;;4994951;28;20030;-56
2022/07/05 10:03:02;;;;;;;6.43;2.90;;;;;;;;;;4995076;28;20026;-52
2022/07/05 10:05:29;;;;;;;5.43;2.75;;;;;;;;;;4994915;28;20483;-53
2022/07/05 10:07:57;;;;;;;9.38;2.45;;;;;;;;;;4995006;28;20072;-54
2022/07/05 10:10:27;;;;;;;10.30;3.35;;;;;;;;;;4994873;28;20022;-53
2022/07/05 10:12:54;;;;;;;5.78;3.25;;;;;;;;;;4994942;28;20575;-53
2022/07/05 10:15:20;;;;;;;;;;;;;;;;;;4995297;28;20053;-53
2022/07/05 10:17:47;;;;;;;7.05;3.03;;;;;;;;;;4994899;28;20354;-53
2022/07/05 10:20:26;;;;;;;8.13;2.13;;;;;;;;;;4994630;28;20089;-53
2022/07/05 10:22:52;;;;;;;6.82;2.35;;;;;;;;;;4994922;28;20040;-55
2022/07/05 10:25:18;;;;;;;6.88;3.25;;;;;;;;;;4989817;28;20031;-55
2022/07/05 10:27:44;;;;;;;5.82;3.47;;;;;;;;;;4993898;28;20476;-54
2022/07/05 10:30:12;;;;;;;7.00;4.13;;;;;;;;;;4992991;28;20073;-54
2022/07/05 10:32:38;;;;;;;5.63;3.20;;;;;;;;;;5008336;28;20376;-54
2022/07/05 10:35:04;;;;;;;;;;;;;;;;;;4994178;28;20053;-55
2022/07/05 10:37:32;;;;;;;5.93;3.10;;;;;;;;;;4992688;28;20435;-53
2022/07/05 10:39:58;;;;;;;5.25;3.08;;;;;;;;;;4994099;28;20041;-55
2022/07/05 10:42:25;;;;;;;8.38;4.50;;;;;;;;;;4994347;28;20117;-54
2022/07/05 10:44:51;;;;;;;4.93;4.22;;;;;;;;;;4989005;28;20109;-56
2022/07/05 10:47:19;;;;;;;6.72;4.70;;;;;;;;;;4991658;28;20026;-54
2022/07/05 10:49:59;;;;;;;6.35;4.55;;;;;;;;;;4993615;28;20027;-56
2022/07/05 10:52:26;;;;;;;10.02;5.03;;;;;;;;;;4994273;28;20023;-57
2022/07/05 10:55:10;;;;;;;4.75;3.22;;;;;;;;;;4993452;28;20050;-55
2022/07/05 10:57:36;;;;;;;6.65;3.63;;;;;;;;;;4993146;28;20061;-56
2022/07/05 11:00:09;;;;;;;8.85;5.07;;;;;;;;;;4993901;28;20030;-55
2022/07/05 11:02:35;;;;;;;8.77;4.88;;;;;;;;;;4992412;28;20085;-56
2022/07/05 11:05:02;;;;;;;11.57;4.95;;;;;;;;;;4991630;28;20372;-56
2022/07/05 11:07:47;;;;;;;8.75;5.97;;;;;;;;;;5003310;28;20061;-55
2022/07/05 11:10:13;;;;;;;12.68;7.55;;;;;;;;;;4993280;28;20058;-58
2022/07/05 11:12:39;;;;;;;9.13;6.40;;;;;;;;;;4990473;28;20030;-55
2022/07/05 11:15:08;;;;;;;11.65;6.05;;;;;;;;;;4992173;28;20027;-56
2022/07/05 11:17:36;;;;;;;8.95;6.55;;;;;;;;;;4981820;28;20035;-56
2022/07/05 11:20:12;;;;;;;8.57;7.65;;;;;;;;;;4992655;28;20033;-54
2022/07/05 11:22:41;;;;;;;9.05;6.63;;;;;;;;;;4982071;28;20058;-54
2022/07/05 11:25:08;;;;;;;7.80;5.85;;;;;;;;;;4974037;28;20034;-54
2022/07/05 11:27:34;;;;;;;8.15;6.47;;;;;;;;;;4974087;28;20015;-53
2022/07/05 11:30:00;;;;;;;10.48;6.78;;;;;;;;;;4988941;28;20388;-55
2022/07/05 11:32:29;;;;;;;10.82;6.15;;;;;;;;;;4983711;28;20027;-55
2022/07/05 11:34:57;;;;;;;8.70;7.13;;;;;;;;;;4987218;28;20038;-56
2022/07/05 11:37:24;;;;;;;7.90;5.55;;;;;;;;;;4992064;28;20395;-54
2022/07/05 11:40:11;;;;;;;10.07;6.70;;;;;;;;;;4992838;28;20034;-57
2022/07/05 11:42:39;;;;;;;10.43;7.13;;;;;;;;;;4991756;28;20118;-57
2022/07/05 11:45:09;;;;;;;7.75;5.57;;;;;;;;;;4984085;28;20402;-56
2022/07/05 11:47:36;;;;;;;7.97;5.07;;;;;;;;;;4992008;28;20026;-55
2022/07/05 11:50:02;;;;;;;;;;;;;;;;;;4980813;28;20032;-58
2022/07/05 11:52:29;;;;;;;10.57;5.43;;;;;;;;;;4988616;28;19985;-57
2022/07/05 11:54:55;;;;;;;12.60;5.35;;;;;;;;;;4973396;28;20034;-56
2022/07/05 11:57:21;;;;;;;6.88;5.22;;;;;;;;;;4973619;28;20503;-56
2022/07/05 11:59:47;;;;;;;7.25;5.53;;;;;;;;;;4991776;28;20092;-56
2022/07/05 12:02:14;;;;;;;5.70;4.47;;;;;;;;;;4992727;28;20030;-56
2022/07/05 12:04:39;;;;;;;;;;;;;;;;;;4992695;28;20018;-56
2022/07/05 12:07:06;;;;;;;9.82;4.93;;;;;;;;;;4992941;28;19937;-56
2022/07/05 12:15:07;;;;;;;11.27;5.45;;;;;;;;;;4992837;28;20049;-55
2022/07/05 12:17:36;;;;;;;5.65;4.47;;;;;;;;;;4992651;28;20022;-56
2022/07/05 12:20:03;;;;;;;9.80;4.68;;;;;;;;;;4992064;28;20037;-56
2022/07/05 12:22:32;;;;;;;10.52;5.18;;;;;;;;;;4992625;28;20490;-55
2022/07/05 12:25:00;;;;;;;8.60;4.95;;;;;;;;;;4992003;28;20026;-53
2022/07/05 12:27:27;;;;;;;8.20;5.10;;;;;;;;;;4992537;28;20030;-56
2022/07/05 12:29:53;;;;;;;7.40;4.70;;;;;;;;;;4991933;28;20364;-53
2022/07/05 12:32:19;;;;;;;5.90;4.38;;;;;;;;;;4992451;28;20153;-55
2022/07/05 12:34:45;;;;;;;10.43;5.55;;;;;;;;;;4992361;28;20034;-56
2022/07/05 12:37:19;;;;;;;8.90;4.85;;;;;;;;;;5007511;28;20034;-56
2022/07/05 12:39:45;;;;;;;14.18;4.45;;;;;;;;;;4992103;28;20030;-56
2022/07/05 12:42:32;;;;;;;5.63;4.95;;;;;;;;;;4992300;28;20070;-56
2022/07/05 12:45:11;;;;;;;9.38;4.93;;;;;;;;;;4991796;28;20030;-57
2022/07/05 12:47:48;;;;;;;5.80;4.20;;;;;;;;;;4992392;28;20030;-57
2022/07/05 12:50:14;;;;;;;5.05;4.05;;;;;;;;;;4991987;28;20060;-55
2022/07/05 12:53:00;;;;;;;8.32;4.28;;;;;;;;;;4992230;28;20372;-56
2022/07/05 12:58:18;;;;;;;7.18;4.80;;;;;;;;;;4994414;28;20104;-54
2022/07/05 13:00:44;;;;;;;8.55;3.65;;;;;;;;;;4995832;28;20026;-58
2022/07/05 13:03:11;;;;;;;5.90;3.42;;;;;;;;;;4996123;28;20479;-57
2022/07/05 13:05:37;;;;;;;5.57;3.80;;;;;;;;;;4995651;28;20037;-56
2022/07/05 13:08:03;;;;;;;8.38;3.90;;;;;;;;;;4996595;28;20029;-56
2022/07/05 13:10:31;;;;;;;6.53;3.70;;;;;;;;;;4994575;28;20022;-56
2022/07/05 13:12:58;;;;;;;9.15;4.07;;;;;;;;;;4996103;28;20082;-58
2022/07/05 13:15:24;;;;;;;;;;;;;;;;;;4996156;28;20030;-56
2022/07/05 13:17:50;;;;;;;6.03;3.75;;;;;;;;;;4996019;28;19928;-56
2022/07/05 13:20:22;;;;;;;6.18;4.35;;;;;;;;;;4995601;28;20038;-56
2022/07/05 13:22:48;;;;;;;8.43;3.03;;;;;;;;;;4995816;28;20034;-58
2022/07/05 13:25:14;;;;;;;5.32;3.22;;;;;;;;;;4995677;28;20058;-53
2022/07/05 13:27:41;;;;;;;4.70;2.72;;;;;;;;;;4996184;28;20395;-54
2022/07/05 13:30:08;;;;;;;6.95;3.13;;;;;;;;;;4991586;28;20026;-57
2022/07/05 13:32:34;;;;;;;6.35;3.03;;;;;;;;;;4994068;28;20034;-56
2022/07/05 13:35:00;;;;;;;8.48;3.13;;;;;;;;;;4991106;28;20026;-56
2022/07/05 13:37:26;;;;;;;;;;;;;;;;;;4976529;28;20395;-57
2022/07/05 13:39:52;;;;;;;5.93;2.97;;;;;;;;;;4985130;28;19905;-56
2022/07/05 13:42:18;;;;;;;;;;;;;;;;;;4995871;28;20030;-58
2022/07/05 13:44:44;;;;;;;5.28;3.17;;;;;;;;;;4995157;28;19905;-58
2022/07/05 13:47:11;;;;;;;3.75;2.78;;;;;;;;;;4994456;28;20049;-57
2022/07/05 13:49:39;;;;;;;6.93;2.72;;;;;;;;;;4993138;28;20473;-57
2022/07/05 13:52:06;;;;;;;6.90;2.80;;;;;;;;;;4993034;28;20142;-56
2022/07/05 13:54:32;;;;;;;5.75;2.80;;;;;;;;;;4994880;28;20454;-57
2022/07/05 13:56:58;;;;;;;3.92;2.75;;;;;;;;;;4989367;28;20049;-57
2022/07/05 13:59:24;;;;;;;4.88;2.75;;;;;;;;;;4991242;28;20031;-57
2022/07/05 14:01:50;;;;;;;5.30;2.70;;;;;;;;;;5008206;28;20116;-54
2022/07/05 14:04:17;;;;;;;6.82;2.95;;;;;;;;;;4995044;28;20031;-52
2022/07/05 14:06:43;;;;;;;5.28;2.78;;;;;;;;;;4994907;28;20026;-54
2022/07/05 14:09:09;;;;;;;7.47;3.17;;;;;;;;;;4993845;28;20487;-52
2022/07/05 14:11:35;;;;;;;6.25;2.92;;;;;;;;;;4993956;28;20465;-51
2022/07/05 14:14:01;;;;;;;5.10;3.10;;;;;;;;;;4994637;28;20041;-55
2022/07/05 14:16:27;;;;;;;5.88;2.70;;;;;;;;;;4994527;28;20034;-52
2022/07/05 14:18:54;;;;;;;4.85;2.55;;;;;;;;;;4994289;28;20117;-52
2022/07/05 14:21:20;;;;;;;5.10;2.40;;;;;;;;;;4994594;28;20057;-54
2022/07/05 14:23:47;;;;;;;4.43;2.20;;;;;;;;;;4993690;28;20032;-54
2022/07/05 14:26:13;;;;;;;5.97;2.85;;;;;;;;;;4994268;28;20341;-54
2022/07/05 14:28:40;;;;;;;5.57;2.70;;;;;;;;;;4994187;28;20030;-52
2022/07/05 14:31:06;;;;;;;8.38;3.28;;;;;;;;;;4986027;28;20074;-53
2022/07/05 14:33:32;;;;;;;7.80;2.47;;;;;;;;;;4992736;28;20033;-54
2022/07/05 14:35:58;;;;;;;5.35;2.88;;;;;;;;;;4990472;28;20391;-51
2022/07/05 14:38:24;;;;;;;4.50;2.28;;;49.00;26.00;;;;;;4979791;28;20019;-51